createdAt,value
2018-08-03T06:00:09.331Z,8.40
2018-08-03T06:02:37.971Z,8.63
2018-08-03T06:05:11.226Z,8.30
2018-08-03T06:07:40.154Z,8.40
2018-08-03T06:10:08.717Z,9.23
2018-08-03T06:12:37.137Z,9.50
2018-08-03T06:15:07.638Z,9.77
2018-08-03T06:17:36.049Z,8.37
2018-08-03T06:20:06.017Z,9.53
2018-08-03T06:22:34.362Z,9.27
2018-08-03T06:25:02.701Z,9.30
2018-08-03T06:27:30.985Z,9.30
2018-08-03T06:29:59.217Z,8.90
2018-08-03T06:32:27.484Z,10.47
2018-08-03T06:34:55.774Z,9.50
2018-08-03T06:37:24.121Z,9.00
2018-08-03T06:39:52.329Z,9.40
2018-08-03T06:42:20.515Z,9.83
2018-08-03T06:44:48.709Z,8.73
2018-08-03T06:47:17.018Z,9.77
2018-08-03T06:49:45.291Z,8.83
2018-08-03T06:52:13.488Z,8.93
2018-08-03T06:54:41.652Z,9.10
2018-08-03T06:57:09.899Z,9.13
2018-08-03T06:59:38.108Z,8.63
2018-08-03T07:02:06.439Z,8.77
2018-08-03T07:04:34.722Z,9.10
2018-08-03T07:07:02.840Z,9.07
2018-08-03T07:09:31.012Z,8.37
2018-08-03T07:11:59.116Z,8.80
2018-08-03T07:14:27.353Z,8.90
2018-08-03T07:16:55.473Z,8.23
2018-08-03T07:19:23.638Z,7.93
2018-08-03T07:21:51.837Z,8.80
2018-08-03T07:24:20.054Z,8.40
2018-08-03T07:26:48.321Z,8.83
2018-08-03T07:29:16.404Z,8.83
2018-08-03T07:31:44.597Z,8.60
2018-08-03T07:34:12.760Z,8.43
2018-08-03T07:36:40.964Z,8.57
2018-08-03T07:39:09.581Z,8.40
2018-08-03T07:41:37.784Z,8.37
2018-08-03T07:44:05.976Z,7.67
2018-08-03T07:46:34.161Z,8.13
2018-08-03T07:49:02.325Z,9.90
2018-08-03T07:51:30.592Z,8.37
2018-08-03T07:53:58.716Z,8.60
2018-08-03T07:56:26.896Z,8.00
2018-08-03T07:58:55.009Z,8.80
2018-08-03T08:01:23.156Z,7.97
2018-08-03T08:03:51.383Z,8.57
2018-08-03T08:06:19.590Z,8.23
2018-08-03T08:08:47.703Z,8.50
2018-08-03T08:11:15.834Z,8.00
2018-08-03T08:13:43.976Z,8.50
2018-08-03T08:16:12.189Z,6.90
2018-08-03T08:18:40.411Z,8.07
2018-08-03T08:21:08.651Z,8.27
2018-08-03T08:23:36.840Z,8.13
2018-08-03T08:26:05.134Z,7.47
2018-08-03T08:28:33.390Z,7.80
2018-08-03T08:31:01.534Z,7.80
2018-08-03T08:33:29.677Z,7.40
2018-08-03T08:35:57.864Z,7.40
2018-08-03T08:38:26.087Z,8.30
2018-08-03T08:40:54.388Z,8.47
2018-08-03T08:43:22.582Z,8.00
2018-08-03T08:45:50.665Z,7.60
2018-08-03T08:48:18.844Z,7.83
2018-08-03T08:50:46.977Z,7.30
2018-08-03T08:53:15.249Z,8.20
2018-08-03T08:55:43.431Z,8.00
2018-08-03T08:58:11.640Z,8.80
2018-08-03T09:00:39.889Z,8.00
2018-08-03T09:03:08.104Z,7.50
2018-08-03T09:05:36.381Z,7.10
2018-08-03T09:08:04.522Z,8.27
2018-08-03T09:10:32.731Z,7.70
2018-08-03T09:13:00.882Z,8.13
2018-08-03T09:15:29.054Z,7.40
2018-08-03T09:17:57.296Z,7.70
2018-08-03T09:20:25.475Z,8.03
2018-08-03T09:22:53.621Z,7.10
2018-08-03T09:25:21.839Z,7.47
2018-08-03T09:27:50.240Z,7.20
2018-08-03T09:30:18.469Z,7.87
2018-08-03T09:32:46.672Z,7.20
2018-08-03T09:35:14.919Z,7.17
2018-08-03T09:37:43.107Z,7.77
2018-08-03T09:40:11.331Z,7.70
2018-08-03T09:42:39.529Z,7.60
2018-08-03T09:45:07.681Z,7.57
2018-08-03T09:47:35.828Z,6.37
2018-08-03T09:50:04.326Z,6.90
2018-08-03T09:52:32.747Z,6.72
2018-08-03T09:55:00.933Z,7.47
2018-08-03T09:57:29.105Z,6.75
2018-08-03T09:59:57.356Z,6.95
2018-08-03T10:02:25.500Z,7.72
2018-08-03T10:04:53.704Z,7.05
2018-08-03T10:07:21.931Z,7.55
2018-08-03T10:09:50.199Z,6.37
2018-08-03T10:12:18.406Z,7.20
2018-08-03T10:14:46.623Z,7.35
2018-08-03T10:17:14.745Z,6.70
2018-08-03T10:19:42.969Z,6.75
2018-08-03T10:22:11.126Z,6.97
2018-08-03T10:24:39.280Z,6.37
2018-08-03T10:27:07.412Z,6.57
2018-08-03T10:29:35.645Z,6.57
2018-08-03T10:32:03.750Z,7.70
2018-08-03T10:34:31.858Z,6.37
2018-08-03T10:37:00.031Z,6.37
2018-08-03T10:39:28.144Z,6.43
2018-08-03T10:41:56.261Z,6.80
2018-08-03T10:44:24.490Z,6.50
2018-08-03T10:46:52.660Z,6.67
2018-08-03T10:49:20.909Z,6.53
2018-08-03T10:51:49.049Z,5.67
2018-08-03T10:54:17.264Z,6.33
2018-08-03T10:56:45.490Z,6.13
2018-08-03T10:59:13.679Z,6.20
2018-08-03T11:01:41.814Z,5.47
2018-08-03T11:04:09.975Z,5.40
2018-08-03T11:06:38.225Z,5.80
2018-08-03T11:09:07.714Z,6.80
2018-08-03T11:11:35.952Z,5.03
2018-08-03T11:14:04.173Z,4.70
2018-08-03T11:16:32.588Z,5.17
2018-08-03T11:19:00.712Z,5.00
2018-08-03T11:21:28.937Z,6.43
2018-08-03T11:23:57.113Z,5.90
2018-08-03T11:26:25.249Z,5.30
2018-08-03T11:28:53.436Z,5.90
2018-08-03T11:31:21.600Z,5.70
2018-08-03T11:33:49.819Z,4.87
2018-08-03T11:36:18.074Z,5.50
2018-08-03T11:38:46.209Z,4.33
2018-08-03T11:41:14.361Z,4.63
2018-08-03T11:43:42.561Z,5.40
2018-08-03T11:46:10.760Z,5.30
2018-08-03T11:48:38.999Z,4.30
2018-08-03T11:51:07.222Z,5.20
2018-08-03T11:53:35.467Z,5.30
2018-08-03T11:56:03.690Z,4.53
2018-08-03T11:58:32.010Z,4.63
2018-08-03T12:01:00.201Z,5.23
2018-08-03T12:03:28.423Z,5.23
2018-08-03T12:05:56.583Z,5.70
2018-08-03T12:08:24.929Z,5.53
2018-08-03T12:10:53.140Z,5.60
2018-08-03T12:13:21.452Z,5.30
2018-08-03T12:15:49.670Z,5.00
2018-08-03T12:18:17.864Z,5.40
2018-08-03T12:20:46.865Z,4.73
2018-08-03T12:23:15.176Z,4.33
2018-08-03T12:25:43.702Z,5.30
2018-08-03T12:28:12.239Z,5.20
2018-08-03T12:30:40.405Z,5.37
2018-08-03T12:33:08.774Z,5.17
2018-08-03T12:35:37.014Z,4.90
2018-08-03T12:38:05.173Z,5.33
2018-08-03T12:40:33.364Z,6.20
2018-08-03T12:43:01.597Z,5.43
2018-08-03T12:45:33.996Z,4.97
2018-08-03T12:47:57.979Z,5.60
2018-08-03T12:50:26.126Z,5.53
2018-08-03T12:52:54.409Z,4.83
2018-08-03T12:55:22.540Z,5.30
2018-08-03T12:57:50.729Z,5.30
2018-08-03T13:00:18.931Z,5.43
2018-08-03T13:02:47.119Z,5.87
2018-08-03T13:05:15.261Z,4.80
2018-08-03T13:07:43.477Z,5.10
2018-08-03T13:10:11.644Z,5.10
2018-08-03T13:12:39.868Z,4.93
2018-08-03T13:15:08.796Z,5.43
2018-08-03T13:17:36.953Z,5.43
2018-08-03T13:20:05.444Z,5.23
2018-08-03T13:22:33.632Z,6.20
2018-08-03T13:25:01.805Z,6.13
2018-08-03T13:27:30.000Z,5.77
2018-08-03T13:29:58.099Z,4.60
2018-08-03T13:32:26.252Z,5.40
2018-08-03T13:34:54.591Z,5.00
2018-08-03T13:37:22.753Z,5.33
2018-08-03T13:39:51.017Z,5.00
2018-08-03T13:42:19.157Z,5.13
2018-08-03T13:44:47.344Z,4.97
2018-08-03T13:47:15.492Z,5.40
2018-08-03T13:49:43.676Z,5.00
2018-08-03T13:52:11.902Z,4.63
2018-08-03T13:54:40.030Z,5.93
2018-08-03T13:57:08.248Z,4.53
2018-08-03T13:59:36.400Z,4.97
2018-08-03T14:02:18.184Z,5.07
2018-08-03T14:04:46.369Z,5.60
2018-08-03T14:07:14.681Z,4.20
2018-08-03T14:09:42.831Z,5.07
2018-08-03T14:12:11.031Z,4.83
2018-08-03T14:14:39.942Z,4.50
2018-08-03T14:17:08.126Z,5.23
2018-08-03T14:19:36.309Z,5.20
2018-08-03T14:22:04.777Z,5.17
2018-08-03T14:24:32.978Z,5.20
2018-08-03T14:27:01.247Z,4.83
2018-08-03T14:29:29.389Z,4.83
2018-08-03T14:31:57.577Z,4.40
2018-08-03T14:34:25.733Z,5.37
2018-08-03T14:36:54.030Z,5.43
2018-08-03T14:39:22.313Z,4.67
2018-08-03T14:41:50.501Z,4.60
2018-08-03T14:44:18.642Z,5.13
2018-08-03T14:46:46.797Z,4.50
2018-08-03T14:49:14.967Z,5.07
2018-08-03T14:51:43.183Z,5.00
2018-08-03T14:54:11.331Z,4.90
2018-08-03T14:56:39.518Z,5.27
2018-08-03T14:59:07.640Z,4.90
2018-08-03T15:01:35.821Z,4.57
2018-08-03T15:04:04.024Z,4.60
2018-08-03T15:06:32.149Z,4.83
2018-08-03T15:09:00.317Z,5.00
2018-08-03T15:11:28.457Z,4.70
2018-08-03T15:13:56.639Z,4.87
2018-08-03T15:16:24.836Z,5.57
2018-08-03T15:18:53.074Z,5.40
2018-08-03T15:21:21.278Z,5.10
2018-08-03T15:23:49.428Z,4.83
2018-08-03T15:26:17.601Z,5.50
2018-08-03T15:28:45.832Z,5.33
2018-08-03T15:31:14.005Z,5.10
2018-08-03T15:33:42.195Z,5.30
2018-08-03T15:36:10.524Z,9.00
2018-08-03T15:38:38.677Z,6.07
2018-08-03T15:41:07.018Z,5.12
2018-08-03T15:43:35.188Z,5.27
2018-08-03T15:46:03.345Z,5.60
2018-08-03T15:48:31.478Z,4.80
2018-08-03T15:50:59.634Z,5.47
2018-08-03T15:53:27.845Z,5.37
2018-08-03T15:55:56.018Z,6.00
2018-08-03T15:58:24.281Z,5.50
2018-08-03T16:00:52.529Z,5.30
2018-08-03T16:03:20.739Z,5.70
2018-08-03T16:05:48.957Z,5.47
2018-08-03T16:08:17.195Z,5.03
2018-08-03T16:10:45.332Z,5.40
2018-08-03T16:13:13.544Z,5.10
2018-08-03T16:15:41.753Z,4.60
2018-08-03T16:18:09.989Z,5.30
2018-08-03T16:20:38.248Z,5.00
2018-08-03T16:23:06.403Z,5.30
2018-08-03T16:25:34.629Z,5.73
2018-08-03T16:28:02.852Z,5.10
2018-08-03T16:30:31.058Z,5.40
2018-08-03T16:32:59.450Z,5.50
2018-08-03T16:35:27.608Z,5.07
2018-08-03T16:37:55.823Z,4.90
2018-08-03T16:40:24.040Z,4.70
2018-08-03T16:42:52.229Z,4.83
2018-08-03T16:45:20.413Z,5.33
2018-08-03T16:47:48.575Z,5.33
2018-08-03T16:50:16.796Z,5.27
2018-08-03T16:52:45.005Z,5.40
2018-08-03T16:55:13.316Z,5.33
2018-08-03T16:57:41.503Z,5.30
2018-08-03T17:00:09.688Z,5.43
2018-08-03T17:02:37.864Z,5.20
2018-08-03T17:05:06.108Z,5.03
2018-08-03T17:07:34.329Z,5.13
2018-08-03T17:10:02.469Z,5.40
2018-08-03T17:12:30.632Z,5.13
2018-08-03T17:14:58.766Z,5.83
2018-08-03T17:17:26.940Z,5.13
2018-08-03T17:19:55.161Z,4.57
2018-08-03T17:22:23.328Z,4.73
2018-08-03T17:24:51.685Z,4.97
2018-08-03T17:27:19.859Z,5.40
2018-08-03T17:29:48.081Z,5.10
2018-08-03T17:32:16.300Z,5.37
2018-08-03T17:34:44.456Z,5.50
2018-08-03T17:37:12.623Z,5.30
2018-08-03T17:39:40.794Z,5.10
2018-08-03T17:42:08.989Z,5.17
2018-08-03T17:44:37.199Z,5.77
2018-08-03T17:47:05.426Z,4.60
2018-08-03T17:49:33.693Z,5.90
2018-08-03T17:52:01.849Z,5.40
2018-08-03T17:54:29.991Z,5.10
2018-08-03T17:56:58.208Z,5.00
2018-08-03T17:59:26.381Z,5.60
2018-08-03T18:01:54.545Z,5.90
2018-08-03T18:04:22.725Z,5.10
2018-08-03T18:06:50.912Z,5.33
2018-08-03T18:09:19.200Z,5.20
2018-08-03T18:11:48.526Z,6.17
2018-08-03T18:14:16.685Z,5.43
2018-08-03T18:16:44.872Z,6.10
2018-08-03T18:19:13.074Z,5.40
2018-08-03T18:21:41.326Z,5.43
2018-08-03T18:24:09.612Z,5.20
2018-08-03T18:26:37.861Z,6.10
2018-08-03T18:29:06.086Z,5.40
2018-08-03T18:31:34.180Z,5.30
2018-08-03T18:34:02.340Z,5.57
2018-08-03T18:36:30.576Z,4.87
2018-08-03T18:38:58.713Z,5.00
2018-08-03T18:41:26.899Z,4.80
2018-08-03T18:43:55.094Z,4.47
2018-08-03T18:46:23.305Z,5.30
2018-08-03T18:48:51.472Z,5.20
2018-08-03T18:51:19.696Z,4.90
2018-08-03T18:53:47.843Z,6.10
2018-08-03T18:56:15.994Z,5.23
2018-08-03T18:58:44.321Z,5.90
2018-08-03T19:01:12.520Z,6.47
2018-08-03T19:03:40.672Z,6.23
2018-08-03T19:06:08.776Z,6.00
2018-08-03T19:08:37.056Z,5.80
2018-08-03T19:11:05.234Z,6.47
2018-08-03T19:13:33.413Z,6.17
2018-08-03T19:16:01.540Z,5.90
2018-08-03T19:18:29.774Z,6.43
2018-08-03T19:20:57.929Z,6.27
2018-08-03T19:23:26.161Z,5.77
2018-08-03T19:25:54.346Z,6.60
2018-08-03T19:28:22.536Z,6.67
2018-08-03T19:30:50.733Z,8.77
2018-08-03T19:33:18.868Z,8.47
2018-08-03T19:35:47.093Z,10.60
2018-08-03T19:38:15.277Z,18.57
2018-08-03T19:40:43.498Z,22.07
2018-08-03T19:43:11.660Z,25.53
2018-08-03T19:45:39.833Z,21.70
2018-08-03T19:48:08.063Z,18.37
2018-08-03T19:50:36.264Z,17.30
2018-08-03T19:53:04.552Z,19.93
2018-08-03T19:55:32.709Z,28.70
2018-08-03T19:58:00.889Z,24.30
2018-08-03T20:00:29.156Z,13.30
2018-08-03T20:02:57.299Z,6.67
2018-08-03T20:05:25.540Z,6.53
2018-08-03T20:07:53.680Z,6.00
2018-08-03T20:10:21.844Z,9.10
2018-08-03T20:12:50.100Z,11.80
2018-08-03T20:15:18.256Z,22.30
2018-08-03T20:17:46.450Z,13.43
2018-08-03T20:20:14.661Z,13.90
2018-08-03T20:22:42.860Z,10.77
2018-08-03T20:25:11.173Z,9.10
2018-08-03T20:27:39.372Z,6.87
2018-08-03T20:30:07.852Z,6.43
2018-08-03T20:32:36.015Z,6.70
2018-08-03T20:35:04.322Z,5.73
2018-08-03T20:37:32.556Z,6.43
2018-08-03T20:40:00.666Z,5.50
2018-08-03T20:42:28.868Z,5.90
2018-08-03T20:44:57.071Z,6.50
2018-08-03T20:47:25.220Z,6.83
2018-08-03T20:49:53.405Z,6.57
2018-08-03T20:52:21.661Z,5.63
2018-08-03T20:54:49.881Z,5.70
2018-08-03T20:57:18.048Z,5.77
2018-08-03T20:59:46.181Z,5.77
2018-08-03T21:02:14.427Z,5.90
2018-08-03T21:04:42.610Z,5.87
2018-08-03T21:07:10.751Z,6.47
2018-08-03T21:09:38.947Z,6.10
2018-08-03T21:12:07.128Z,6.20
2018-08-03T21:14:35.365Z,6.43
2018-08-03T21:17:03.525Z,5.70
2018-08-03T21:19:31.664Z,6.13
2018-08-03T21:21:59.851Z,6.37
2018-08-03T21:24:28.065Z,6.00
2018-08-03T21:26:56.305Z,6.70
2018-08-03T21:29:24.456Z,6.00
2018-08-03T21:31:52.592Z,6.47
2018-08-03T21:34:20.772Z,7.20
2018-08-03T21:36:48.976Z,6.53
2018-08-03T21:39:17.272Z,5.77
2018-08-03T21:41:45.464Z,6.80
2018-08-03T21:44:13.642Z,7.40
2018-08-03T21:46:41.797Z,6.20
2018-08-03T21:49:10.012Z,6.20
2018-08-03T21:51:38.279Z,6.90
2018-08-03T21:54:06.485Z,6.70
2018-08-03T21:56:34.693Z,6.10
2018-08-03T21:59:02.946Z,6.60
2018-08-03T22:01:31.320Z,6.10
2018-08-03T22:03:59.686Z,6.90
2018-08-03T22:06:27.934Z,6.43
2018-08-03T22:08:56.182Z,7.50
2018-08-03T22:11:24.502Z,6.33
2018-08-03T22:13:52.683Z,6.10
2018-08-03T22:16:20.978Z,6.00
2018-08-03T22:18:49.275Z,6.87
2018-08-03T22:21:17.380Z,5.90
2018-08-03T22:23:45.559Z,6.30
2018-08-03T22:26:13.765Z,6.00
2018-08-03T22:28:42.004Z,6.57
2018-08-03T22:31:10.194Z,6.00
2018-08-03T22:33:38.431Z,6.33
2018-08-03T22:36:06.744Z,5.60
2018-08-03T22:38:34.976Z,6.23
2018-08-03T22:41:04.071Z,6.17
2018-08-03T22:43:32.245Z,6.30
2018-08-03T22:46:00.396Z,6.37
2018-08-03T22:48:28.596Z,6.27
2018-08-03T22:50:56.772Z,7.33
2018-08-03T22:53:25.040Z,6.30
2018-08-03T22:55:53.227Z,7.77
2018-08-03T22:58:21.493Z,8.50
2018-08-03T23:00:49.692Z,7.80
2018-08-03T23:03:17.901Z,7.70
2018-08-03T23:05:46.167Z,6.87
2018-08-03T23:08:14.412Z,6.50
2018-08-03T23:10:42.524Z,7.17
2018-08-03T23:13:10.889Z,6.37
2018-08-03T23:15:39.172Z,6.80
2018-08-03T23:18:07.470Z,6.20
2018-08-03T23:20:35.769Z,5.87
2018-08-03T23:23:04.252Z,6.47
2018-08-03T23:25:32.537Z,6.33
2018-08-03T23:28:00.817Z,6.40
2018-08-03T23:30:29.222Z,5.30
2018-08-03T23:32:57.520Z,6.70
2018-08-03T23:35:25.761Z,6.27
2018-08-03T23:37:53.969Z,5.87
2018-08-03T23:40:22.507Z,5.77
2018-08-03T23:42:50.856Z,6.27
2018-08-03T23:45:19.225Z,6.00
2018-08-03T23:47:47.549Z,6.57
2018-08-03T23:50:17.518Z,6.50
2018-08-03T23:52:46.838Z,6.40
2018-08-03T23:55:16.058Z,6.70
2018-08-03T23:57:44.569Z,6.17
